CWPX

Cape Peel West Airport

Canada
METAR CWPX 220317Z AUTO 04010KT ////SM //// FEW004 SCT021 BKN060 M37/M42 A2982
Observed Flight Rules
Jan-22 @ 03:17 UTC (56 minutes ago)
Wind Clouds
40° at 10 knots
  • Few at 400' AGL
  • Scattered at 2,100' AGL
  • Broken at 6,000' AGL
Temperatures Readings
Current -37°C / -35°F
Dewpoint -42°C / -44°F
Humidity 59%
Altimeter 29.82" Hg
Pressure 1009.82 hPa
Elevation 165
METAR CWPX 220317Z AUTO 04010KT ////SM //// FEW004 SCT021 BKN060 M37/M42 A2982
Observed Flight Rules
Jan-22 @ 03:17 UTC
(56 minutes ago)
Wind
40° at 10 knots
Clouds
  • Few at 400' AGL
  • Scattered at 2,100' AGL
  • Broken at 6,000' AGL
Temperature Dewpoint
-37°C / -35°F -42°C / -44°F
Humidity Altimeter Pressure
59% 29.82" Hg 1009.82 hPa